Time;durP1;ratioP1;P1;durP2;ratioP2;P2;SDS_P1;SDS_P2;PMS_P1;PMS_P2;Temp;Humidity;BMP_temperature;BMP_pressure;BME280_temperature;BME280_humidity;BME280_pressure;Samples;Min_cycle;Max_cycle;Signal;HPM_P1;HPM_P2
2021/12/24 00:00:45;;;;;;;43.87;25.07;;;-0.80;99.90;;;;;;5071695;28;20221;-67
2021/12/24 00:03:13;;;;;;;40.33;23.47;;;-0.90;99.90;;;;;;5071787;28;20212;-66
2021/12/24 00:05:40;;;;;;;48.80;26.03;;;-0.80;99.90;;;;;;5071630;28;20201;-67
2021/12/24 00:08:07;;;;;;;43.10;23.77;;;-0.80;99.90;;;;;;5071799;28;20213;-66
2021/12/24 00:10:38;;;;;;;44.00;24.27;;;-0.80;99.90;;;;;;5068537;28;20216;-64
2021/12/24 00:13:09;;;;;;;45.73;24.63;;;-0.80;99.90;;;;;;5072131;28;20201;-66
2021/12/24 00:18:38;;;;;;;44.20;23.43;;;-0.70;99.90;;;;;;5066459;28;20666;-63
2021/12/24 00:35:11;;;;;;;37.30;20.83;;;-0.60;99.90;;;;;;5071029;28;20289;-63
2021/12/24 00:37:38;;;;;;;35.10;21.00;;;-0.60;99.90;;;;;;5074954;28;20213;-64
2021/12/24 00:40:13;;;;;;;40.90;21.47;;;-0.60;99.90;;;;;;5080108;28;20209;-67
2021/12/24 00:42:44;;;;;;;38.17;21.60;;;-0.50;99.90;;;;;;5071390;28;20240;-63
2021/12/24 00:45:13;;;;;;;36.67;21.50;;;-0.50;99.90;;;;;;5070626;28;20638;-65
2021/12/24 00:47:40;;;;;;;34.67;20.63;;;-0.40;99.90;;;;;;5071169;28;20216;-65
2021/12/24 00:50:11;;;;;;;38.93;20.67;;;-0.50;99.90;;;;;;5071419;28;20201;-64
2021/12/24 00:52:49;;;;;;;36.30;20.97;;;-0.50;99.90;;;;;;5071813;28;20209;-65
2021/12/24 00:55:18;;;;;;;35.27;21.60;;;-0.50;99.90;;;;;;5078548;28;20768;-65
2021/12/24 00:57:47;;;;;;;37.43;21.50;;;-0.50;99.90;;;;;;5070788;28;20243;-65
2021/12/24 01:00:17;;;;;;;42.60;21.97;;;-0.40;99.90;;;;;;5071746;28;20228;-64
2021/12/24 01:02:45;;;;;;;40.43;21.77;;;-0.40;99.90;;;;;;5071256;28;20292;-65
2021/12/24 01:05:13;;;;;;;35.77;21.03;;;-0.40;99.90;;;;;;5071259;28;20292;-64
2021/12/24 01:07:40;;;;;;;38.27;21.50;;;-0.40;99.90;;;;;;5075624;28;20295;-64
2021/12/24 01:10:09;;;;;;;36.47;21.03;;;-0.40;99.90;;;;;;5070900;28;20221;-64
2021/12/24 01:12:36;;;;;;;39.07;21.40;;;-0.40;99.90;;;;;;5070913;28;20267;-64
2021/12/24 01:15:06;;;;;;;34.90;20.17;;;-0.40;99.90;;;;;;5071021;28;20221;-64
2021/12/24 01:17:42;;;;;;;36.77;21.57;;;-0.30;99.90;;;;;;5070655;28;20682;-65
2021/12/24 01:20:20;;;;;;;37.03;21.17;;;-0.30;99.90;;;;;;5070387;28;20217;-64
2021/12/24 01:25:41;;;;;;;36.00;21.17;;;-0.30;99.90;;;;;;5073281;28;20193;-64
2021/12/24 01:39:12;;;;;;;35.40;20.77;;;-0.20;99.90;;;;;;5070610;28;20704;-65
2021/12/24 01:44:27;;;;;;;36.30;20.27;;;-0.30;99.90;;;;;;5073908;28;20619;-64
2021/12/24 01:46:56;;;;;;;35.00;20.37;;;-0.30;99.90;;;;;;5074170;28;20724;-65
2021/12/24 01:49:24;;;;;;;33.97;18.80;;;-0.30;99.90;;;;;;5073533;28;20212;-66
2021/12/24 01:51:52;;;;;;;34.63;19.83;;;-0.30;99.90;;;;;;5081812;28;20217;-62
2021/12/24 01:54:19;;;;;;;35.23;19.37;;;-0.30;99.90;;;;;;5073918;28;20261;-64
2021/12/24 01:56:47;;;;;;;34.60;21.33;;;-0.40;99.90;;;;;;5074258;28;20248;-64
2021/12/24 01:59:14;;;;;;;36.77;20.10;;;-0.40;99.90;;;;;;5074302;28;20208;-64
2021/12/24 02:01:41;;;;;;;38.07;19.90;;;-0.40;99.90;;;;;;5073586;28;20209;-64
2021/12/24 02:04:11;;;;;;;34.20;20.63;;;-0.40;99.90;;;;;;5073599;28;20214;-63
2021/12/24 02:06:38;;;;;;;39.67;20.37;;;-0.40;99.90;;;;;;5074978;28;20677;-63
2021/12/24 02:09:05;;;;;;;33.20;19.37;;;-0.40;99.90;;;;;;5073158;28;20208;-62
2021/12/24 02:11:37;;;;;;;33.00;19.70;;;-0.40;99.90;;;;;;5073584;28;20675;-63
2021/12/24 02:14:05;;;;;;;35.70;20.87;;;-0.40;99.90;;;;;;5061473;28;20205;-63
2021/12/24 02:16:44;;;;;;;31.93;19.20;;;-0.40;99.90;;;;;;5073458;28;20797;-63
2021/12/24 02:28:25;;;;;;;36.57;20.67;;;-0.30;99.90;;;;;;5021180;28;20241;-64
2021/12/24 02:30:53;;;;;;;33.37;18.60;;;-0.30;99.90;;;;;;5062701;28;20274;-63
2021/12/24 02:33:20;;;;;;;34.00;20.03;;;-0.40;99.90;;;;;;5069929;28;20202;-63
2021/12/24 02:35:47;;;;;;;34.23;19.17;;;-0.40;99.90;;;;;;5070224;28;20232;-64
2021/12/24 02:38:15;;;;;;;38.43;20.33;;;-0.40;99.90;;;;;;5072834;28;20202;-64
2021/12/24 02:40:42;;;;;;;37.13;20.40;;;-0.40;99.90;;;;;;5072904;28;20538;-64
2021/12/24 02:43:13;;;;;;;38.37;19.83;;;-0.30;99.90;;;;;;5069537;28;20206;-64
2021/12/24 02:45:42;;;;;;;34.60;20.07;;;-0.30;99.90;;;;;;5061751;28;20225;-63
2021/12/24 02:48:25;;;;;;;34.67;19.20;;;-0.30;99.90;;;;;;5070156;28;20206;-63
2021/12/24 02:53:57;;;;;;;31.20;18.80;;;-0.20;99.90;;;;;;5073993;28;20674;-64
2021/12/24 02:56:27;;;;;;;38.13;19.63;;;-0.20;99.90;;;;;;5072171;28;20251;-64
2021/12/24 02:58:54;;;;;;;33.77;19.83;;;-0.20;99.90;;;;;;5073315;28;20266;-63
2021/12/24 03:01:23;;;;;;;35.23;19.17;;;-0.10;99.90;;;;;;5073819;28;20205;-63
2021/12/24 03:03:51;;;;;;;30.37;17.70;;;-0.30;99.90;;;;;;5059061;28;20205;-63
2021/12/24 03:06:19;;;;;;;36.30;20.33;;;-0.20;99.90;;;;;;5073045;28;20213;-62
2021/12/24 03:08:48;;;;;;;32.33;19.70;;;-0.20;99.90;;;;;;5074009;28;20217;-63
2021/12/24 03:11:15;;;;;;;34.83;20.33;;;-0.20;99.90;;;;;;5074433;28;20515;-61
2021/12/24 03:13:42;;;;;;;30.93;18.87;;;-0.30;99.90;;;;;;5080294;28;20214;-64
2021/12/24 03:16:09;;;;;;;29.57;17.23;;;-0.30;99.90;;;;;;5073184;28;20263;-62
2021/12/24 03:18:39;;;;;;;33.33;20.50;;;-0.30;99.90;;;;;;5073485;28;20642;-62
2021/12/24 03:21:10;;;;;;;30.23;19.40;;;-0.30;99.90;;;;;;5073857;28;20282;-63
2021/12/24 03:23:40;;;;;;;30.13;20.13;;;-0.30;99.90;;;;;;5073802;28;20205;-63
2021/12/24 03:26:12;;;;;;;30.63;18.27;;;-0.20;99.90;;;;;;5073934;28;20252;-62
2021/12/24 03:28:39;;;;;;;33.67;19.40;;;-0.20;99.90;;;;;;5074088;28;20216;-64
2021/12/24 03:31:07;;;;;;;30.07;17.23;;;-0.20;99.90;;;;;;5073824;28;20213;-63
2021/12/24 03:33:35;;;;;;;32.87;19.30;;;-0.30;99.90;;;;;;5073402;28;20213;-65
2021/12/24 03:36:03;;;;;;;30.87;19.10;;;-0.30;99.90;;;;;;5073160;28;20221;-63
2021/12/24 03:38:29;;;;;;;34.47;19.90;;;-0.30;99.90;;;;;;5073914;28;20185;-62
2021/12/24 03:40:56;;;;;;;32.30;19.83;;;-0.30;99.90;;;;;;5073392;28;20413;-64
2021/12/24 03:43:25;;;;;;;31.87;18.57;;;-0.30;99.90;;;;;;5086840;28;20548;-63
2021/12/24 03:46:00;;;;;;;33.37;18.33;;;-0.30;99.90;;;;;;5074984;28;20211;-63
2021/12/24 03:48:40;;;;;;;35.40;19.13;;;-0.30;99.90;;;;;;5072003;28;20201;-63
2021/12/24 03:51:23;;;;;;;31.67;17.00;;;-0.30;99.90;;;;;;5071907;28;20201;-64
2021/12/24 03:56:36;;;;;;;34.37;20.00;;;-0.30;99.90;;;;;;5072669;28;20736;-64
2021/12/24 03:59:05;;;;;;;30.10;18.53;;;-0.30;99.90;;;;;;5081648;28;20296;-63
2021/12/24 04:01:32;;;;;;;31.83;18.67;;;-0.30;99.90;;;;;;5072353;28;20236;-63
2021/12/24 04:03:59;;;;;;;34.13;20.63;;;-0.20;99.90;;;;;;5070506;28;20209;-64
2021/12/24 04:06:27;;;;;;;33.87;19.03;;;-0.20;99.90;;;;;;5071480;28;20288;-63
2021/12/24 04:08:53;;;;;;;31.80;19.30;;;-0.20;99.90;;;;;;5067367;28;20213;-65
2021/12/24 04:11:20;;;;;;;36.47;19.97;;;-0.20;99.90;;;;;;5071854;28;20213;-64
2021/12/24 04:13:47;;;;;;;35.83;19.50;;;-0.20;99.90;;;;;;5072911;28;20208;-63
2021/12/24 04:16:16;;;;;;;31.87;18.90;;;-0.20;99.90;;;;;;5072000;28;20228;-63
2021/12/24 04:18:50;;;;;;;31.47;18.53;;;-0.10;99.90;;;;;;5071937;28;20201;-64
2021/12/24 04:26:45;;;;;;;35.70;19.50;;;-0.10;99.90;;;;;;5067595;28;20314;-62
2021/12/24 04:29:12;;;;;;;30.37;19.70;;;-0.10;99.90;;;;;;5072262;28;20205;-64
2021/12/24 04:31:44;;;;;;;31.47;18.93;;;-0.10;99.90;;;;;;5080765;28;20205;-64
2021/12/24 04:34:12;;;;;;;31.80;17.90;;;-0.10;99.90;;;;;;5079196;28;20319;-64
2021/12/24 04:37:03;;;;;;;36.40;19.33;;;0.00;99.90;;;;;;5071815;28;20670;-63
2021/12/24 04:39:43;;;;;;;30.03;16.97;;;-0.10;99.90;;;;;;5057913;28;20201;-63
2021/12/24 05:01:11;;;;;;;30.57;18.57;;;0.00;99.90;;;;;;5071999;28;20659;-63
2021/12/24 05:01:41;;;;;;;37.17;20.07;;;0.20;99.90;;;;;;5071481;28;20208;-62
2021/12/24 05:04:10;;;;;;;32.67;17.70;;;0.30;99.90;;;;;;5062471;28;20205;-63
2021/12/24 05:06:41;;;;;;;28.83;18.50;;;0.20;99.90;;;;;;5071238;28;20201;-62
2021/12/24 05:09:11;;;;;;;30.67;18.97;;;0.20;99.90;;;;;;5071406;28;20205;-61
2021/12/24 05:11:38;;;;;;;27.57;18.40;;;0.30;99.90;;;;;;5072129;28;20286;-64
2021/12/24 05:14:06;;;;;;;31.80;18.27;;;0.30;99.90;;;;;;5071663;28;20262;-63
2021/12/24 05:16:43;;;;;;;30.23;17.47;;;0.40;99.90;;;;;;5074700;28;20225;-63
2021/12/24 05:21:56;;;;;;;33.47;18.50;;;0.50;99.90;;;;;;5075693;28;20208;-64
2021/12/24 05:24:24;;;;;;;32.43;18.90;;;0.50;99.90;;;;;;5076270;28;20315;-62
2021/12/24 05:26:53;;;;;;;33.80;18.67;;;0.50;99.90;;;;;;5074643;28;20324;-63
2021/12/24 05:29:20;;;;;;;32.23;19.80;;;0.60;99.90;;;;;;5061184;28;20201;-63
2021/12/24 05:31:47;;;;;;;29.73;18.13;;;0.70;99.90;;;;;;5075429;28;20689;-63
2021/12/24 05:34:17;;;;;;;29.83;18.13;;;0.70;99.90;;;;;;5075637;28;20637;-62
2021/12/24 05:36:45;;;;;;;31.13;18.47;;;0.70;99.90;;;;;;5074957;28;20628;-61
2021/12/24 05:39:12;;;;;;;31.00;17.93;;;0.70;99.90;;;;;;5074366;28;20207;-63
2021/12/24 05:41:39;;;;;;;26.53;18.77;;;0.80;99.90;;;;;;5074883;28;20213;-64
2021/12/24 05:44:09;;;;;;;28.03;17.97;;;0.80;99.90;;;;;;5075141;28;20205;-62
2021/12/24 05:46:36;;;;;;;29.07;18.27;;;0.80;99.90;;;;;;5075474;28;20654;-62
2021/12/24 05:49:02;;;;;;;32.77;17.93;;;0.90;99.90;;;;;;5075255;28;20220;-62
2021/12/24 05:51:33;;;;;;;28.53;18.57;;;0.90;99.90;;;;;;5075280;28;20216;-62
2021/12/24 05:54:00;;;;;;;28.13;17.63;;;0.90;99.90;;;;;;5075328;28;20282;-64
2021/12/24 05:56:26;;;;;;;30.77;17.57;;;0.90;99.90;;;;;;5073839;28;20228;-64
2021/12/24 05:58:53;;;;;;;29.13;17.87;;;0.90;99.90;;;;;;5075192;28;20673;-65
2021/12/24 06:01:21;;;;;;;27.50;17.00;;;1.00;99.90;;;;;;5084796;28;20224;-63
2021/12/24 06:03:48;;;;;;;30.53;18.00;;;1.00;99.90;;;;;;5060051;28;20216;-63
2021/12/24 06:06:15;;;;;;;28.90;18.17;;;1.00;99.90;;;;;;5074528;28;20273;-64
2021/12/24 06:08:44;;;;;;;27.43;18.47;;;1.10;99.90;;;;;;5074730;28;20201;-64
2021/12/24 06:11:10;;;;;;;31.10;17.90;;;1.10;99.90;;;;;;5074856;28;20218;-63
2021/12/24 06:13:38;;;;;;;29.93;18.60;;;1.10;99.90;;;;;;5074706;28;20666;-65
2021/12/24 06:16:06;;;;;;;27.27;17.47;;;1.10;99.90;;;;;;5073851;28;20296;-63
2021/12/24 06:18:36;;;;;;;29.20;18.37;;;1.10;99.90;;;;;;5074218;28;20288;-63
2021/12/24 06:21:04;;;;;;;32.70;18.37;;;1.10;99.90;;;;;;5074313;28;20205;-62
2021/12/24 06:23:32;;;;;;;29.13;18.30;;;1.10;99.90;;;;;;5074168;28;20749;-63
2021/12/24 06:26:01;;;;;;;32.90;19.80;;;1.20;99.90;;;;;;5073983;28;20233;-64
2021/12/24 06:28:28;;;;;;;31.93;18.30;;;1.20;99.90;;;;;;5072850;28;20202;-63
2021/12/24 06:30:56;;;;;;;30.77;19.27;;;1.20;99.90;;;;;;5072578;28;20588;-63
2021/12/24 06:33:24;;;;;;;28.60;17.50;;;1.20;99.90;;;;;;5070996;28;20216;-63
2021/12/24 06:35:53;;;;;;;32.73;19.27;;;1.20;99.90;;;;;;5070980;28;20208;-63
2021/12/24 06:38:20;;;;;;;31.47;20.00;;;1.20;99.90;;;;;;5064936;28;20229;-63
2021/12/24 06:40:47;;;;;;;29.53;18.90;;;1.30;99.90;;;;;;5070193;28;20205;-63
2021/12/24 06:43:15;;;;;;;29.80;18.60;;;1.30;99.90;;;;;;5067181;28;20228;-64
2021/12/24 06:45:42;;;;;;;30.90;17.80;;;1.20;99.90;;;;;;5069127;28;20217;-62
2021/12/24 06:48:09;;;;;;;33.57;19.43;;;1.30;99.90;;;;;;5067706;28;20205;-64
2021/12/24 06:50:36;;;;;;;31.00;18.73;;;1.30;99.90;;;;;;5065603;28;20206;-64
2021/12/24 06:53:03;;;;;;;31.83;19.80;;;1.30;99.90;;;;;;5073399;28;20201;-63
2021/12/24 06:55:30;;;;;;;29.87;17.93;;;1.30;99.90;;;;;;5074095;28;20293;-64
2021/12/24 06:57:57;;;;;;;29.90;18.90;;;1.40;99.90;;;;;;5073356;28;20217;-64
2021/12/24 07:00:26;;;;;;;29.57;19.07;;;1.40;99.90;;;;;;5076275;28;20230;-64
2021/12/24 07:02:53;;;;;;;30.70;18.60;;;1.40;99.90;;;;;;5073067;28;20215;-65
2021/12/24 07:05:21;;;;;;;29.87;17.63;;;1.40;99.90;;;;;;5072835;28;20622;-65
2021/12/24 07:07:48;;;;;;;30.40;17.93;;;1.40;99.90;;;;;;5072531;28;20216;-64
2021/12/24 07:10:15;;;;;;;28.70;18.13;;;1.50;99.90;;;;;;5071533;28;20205;-65
2021/12/24 07:12:42;;;;;;;29.77;17.77;;;1.50;99.90;;;;;;5073689;28;20185;-65
2021/12/24 07:15:10;;;;;;;27.80;18.03;;;1.50;99.90;;;;;;5075349;28;20201;-65
2021/12/24 07:17:38;;;;;;;29.90;18.20;;;1.50;99.90;;;;;;5072897;28;20220;-64
2021/12/24 07:20:06;;;;;;;29.63;18.70;;;1.60;99.90;;;;;;5072886;28;20211;-65
2021/12/24 07:22:33;;;;;;;28.50;17.90;;;1.60;99.90;;;;;;5073297;28;20197;-65
2021/12/24 07:25:00;;;;;;;28.40;18.03;;;1.60;99.90;;;;;;5073062;28;20201;-65
2021/12/24 07:27:26;;;;;;;29.80;18.93;;;1.60;99.90;;;;;;5072330;28;20229;-65
2021/12/24 07:29:53;;;;;;;31.13;18.60;;;1.60;99.90;;;;;;5080767;28;20210;-65
2021/12/24 07:32:20;;;;;;;27.63;18.23;;;1.60;99.90;;;;;;5071703;28;20216;-64
2021/12/24 07:34:50;;;;;;;29.10;18.43;;;1.60;99.90;;;;;;5072265;28;20236;-65
2021/12/24 07:37:16;;;;;;;28.13;17.47;;;1.60;99.90;;;;;;5072073;28;20225;-64
2021/12/24 07:39:43;;;;;;;29.60;18.43;;;1.60;99.90;;;;;;5071826;28;20201;-64
2021/12/24 07:42:10;;;;;;;27.83;18.17;;;1.60;99.90;;;;;;5072852;28;20284;-66
2021/12/24 07:44:37;;;;;;;30.23;17.47;;;1.60;99.90;;;;;;5065366;28;20206;-64
2021/12/24 07:47:14;;;;;;;28.33;18.17;;;1.60;99.90;;;;;;5066770;28;20272;-63
2021/12/24 07:49:41;;;;;;;27.77;18.17;;;1.70;99.90;;;;;;5072979;28;20565;-63
2021/12/24 07:52:09;;;;;;;25.57;16.17;;;1.70;99.90;;;;;;5081607;28;20642;-65
2021/12/24 07:54:38;;;;;;;27.60;18.30;;;1.80;99.90;;;;;;5067505;28;20201;-63
2021/12/24 07:57:06;;;;;;;28.57;17.67;;;1.80;99.90;;;;;;5071705;28;20221;-65
2021/12/24 07:59:35;;;;;;;25.47;17.27;;;1.80;99.90;;;;;;5071788;28;20251;-64
2021/12/24 08:02:02;;;;;;;26.53;18.07;;;1.80;99.90;;;;;;5071875;28;20228;-64
2021/12/24 08:04:29;;;;;;;28.07;16.93;;;1.80;99.90;;;;;;5071243;28;20201;-64
2021/12/24 08:06:56;;;;;;;28.37;17.73;;;1.80;99.90;;;;;;5071938;28;20219;-65
2021/12/24 08:09:24;;;;;;;27.17;17.07;;;1.80;99.90;;;;;;5071617;28;20212;-64
2021/12/24 08:11:51;;;;;;;25.33;17.37;;;1.80;99.90;;;;;;5073879;28;20200;-65
2021/12/24 08:14:18;;;;;;;27.47;17.90;;;1.80;99.90;;;;;;5065688;28;20213;-64
2021/12/24 08:16:45;;;;;;;27.93;17.07;;;1.80;99.90;;;;;;5069523;28;20579;-65
2021/12/24 08:19:13;;;;;;;27.23;17.27;;;1.80;99.90;;;;;;5071338;28;20201;-65
2021/12/24 08:21:40;;;;;;;30.53;16.73;;;1.80;99.90;;;;;;5071833;28;20209;-64
2021/12/24 08:24:08;;;;;;;26.30;17.13;;;1.80;99.90;;;;;;5072067;28;20201;-64
2021/12/24 08:26:36;;;;;;;27.17;16.63;;;1.80;99.90;;;;;;5071564;28;20618;-65
2021/12/24 08:29:03;;;;;;;26.60;18.10;;;1.80;99.90;;;;;;5082669;28;20212;-63
2021/12/24 08:31:31;;;;;;;28.57;16.93;;;1.80;99.90;;;;;;5072003;28;20298;-65
2021/12/24 08:33:58;;;;;;;30.07;17.33;;;1.80;99.90;;;;;;5071854;28;21084;-65
2021/12/24 08:36:25;;;;;;;27.23;17.87;;;1.90;99.90;;;;;;5071013;28;20205;-65
2021/12/24 08:38:52;;;;;;;27.20;17.90;;;1.90;99.90;;;;;;5071160;28;20747;-64
2021/12/24 08:41:19;;;;;;;27.33;17.67;;;1.90;99.90;;;;;;5066122;28;20642;-64
2021/12/24 08:43:47;;;;;;;28.33;18.63;;;1.90;99.90;;;;;;5067327;28;20212;-64
2021/12/24 08:46:14;;;;;;;31.33;19.10;;;1.90;99.90;;;;;;5069859;28;20201;-64
2021/12/24 08:48:41;;;;;;;38.50;20.20;;;1.90;99.90;;;;;;5070443;28;20832;-64
2021/12/24 08:51:08;;;;;;;30.97;19.60;;;2.00;99.90;;;;;;5070060;28;20205;-64
2021/12/24 08:53:35;;;;;;;29.97;18.27;;;2.00;99.90;;;;;;5072020;28;20236;-65
2021/12/24 08:56:02;;;;;;;27.70;17.50;;;2.00;99.90;;;;;;5074426;28;20209;-65
2021/12/24 08:58:29;;;;;;;28.93;19.07;;;2.00;99.90;;;;;;5070256;28;20224;-64
2021/12/24 09:00:57;;;;;;;28.80;18.13;;;1.10;99.90;;;;;;5072780;28;20205;-65
2021/12/24 09:03:24;;;;;;;30.97;19.43;;;2.00;99.90;;;;;;5073648;28;20205;-64
2021/12/24 09:05:51;;;;;;;29.90;18.67;;;2.00;99.90;;;;;;5072222;28;20213;-63
2021/12/24 09:08:18;;;;;;;26.97;17.90;;;2.00;99.90;;;;;;5072109;28;20204;-65
2021/12/24 09:10:45;;;;;;;28.27;17.93;;;2.10;99.90;;;;;;5075127;28;20220;-65
2021/12/24 09:13:11;;;;;;;28.10;18.07;;;2.10;99.90;;;;;;5080772;28;20212;-65
2021/12/24 09:15:40;;;;;;;30.90;18.57;;;2.10;99.90;;;;;;5075943;28;20563;-66
2021/12/24 09:18:08;;;;;;;30.47;17.57;;;2.10;99.90;;;;;;5071533;28;20253;-66
2021/12/24 09:20:40;;;;;;;26.90;16.90;;;2.10;99.90;;;;;;5075107;28;20201;-65
2021/12/24 09:23:07;;;;;;;28.07;17.80;;;2.10;99.90;;;;;;5075949;28;20205;-65
2021/12/24 09:25:35;;;;;;;26.93;17.07;;;2.10;99.90;;;;;;5075413;28;20492;-64
2021/12/24 09:28:02;;;;;;;28.87;18.37;;;2.10;99.90;;;;;;5072915;28;20701;-65
2021/12/24 09:30:30;;;;;;;25.37;16.23;;;2.10;99.90;;;;;;5075924;28;20296;-65
2021/12/24 09:32:57;;;;;;;31.37;17.87;;;2.10;99.90;;;;;;5076122;28;20674;-65
2021/12/24 09:35:26;;;;;;;24.93;16.60;;;2.10;99.90;;;;;;5075135;28;20201;-65
2021/12/24 09:37:54;;;;;;;28.00;18.00;;;2.10;99.90;;;;;;5075703;28;20755;-64
2021/12/24 09:40:21;;;;;;;27.03;17.17;;;2.10;99.90;;;;;;5075685;28;20209;-66
2021/12/24 09:42:49;;;;;;;27.60;18.23;;;2.10;99.90;;;;;;5075457;28;20216;-64
2021/12/24 09:45:17;;;;;;;26.60;17.80;;;2.10;99.90;;;;;;5074266;28;20211;-64
2021/12/24 09:47:44;;;;;;;26.70;17.47;;;2.10;99.90;;;;;;5075190;28;20206;-63
2021/12/24 09:50:15;;;;;;;27.20;18.23;;;2.20;99.90;;;;;;5061517;28;20216;-64
2021/12/24 09:52:45;;;;;;;26.90;17.50;;;2.20;99.90;;;;;;5080214;28;20325;-64
2021/12/24 09:55:14;;;;;;;27.83;17.43;;;2.20;99.90;;;;;;5075746;28;20658;-64
2021/12/24 09:57:43;;;;;;;25.53;17.33;;;2.20;99.90;;;;;;5075428;28;20606;-64
2021/12/24 10:00:12;;;;;;;26.63;16.53;;;2.30;99.90;;;;;;5075544;28;20209;-63
2021/12/24 10:02:42;;;;;;;29.13;17.33;;;2.30;99.90;;;;;;5073956;28;20676;-63
2021/12/24 10:05:27;;;;;;;29.17;17.50;;;2.20;99.90;;;;;;5075005;28;20224;-64
2021/12/24 10:08:01;;;;;;;30.63;17.77;;;2.20;99.90;;;;;;5074778;28;20654;-64
2021/12/24 10:10:30;;;;;;;28.67;17.43;;;2.30;99.90;;;;;;5073260;28;20215;-65
2021/12/24 10:13:17;;;;;;;29.10;17.07;;;2.30;99.90;;;;;;5074053;28;20237;-63
2021/12/24 10:15:51;;;;;;;29.57;18.67;;;2.30;99.90;;;;;;5082583;28;20213;-64
2021/12/24 10:18:28;;;;;;;27.93;18.17;;;2.30;99.90;;;;;;5080694;28;20229;-64
2021/12/24 10:21:00;;;;;;;27.43;18.03;;;2.40;99.90;;;;;;5074497;28;20204;-64
2021/12/24 10:23:49;;;;;;;28.77;18.17;;;2.40;99.90;;;;;;5074802;28;20205;-63
2021/12/24 10:26:22;;;;;;;81.60;34.10;;;2.40;99.90;;;;;;5062474;28;20237;-64
2021/12/24 10:28:51;;;;;;;43.47;22.43;;;2.40;99.90;;;;;;5073887;28;20705;-64
2021/12/24 10:31:19;;;;;;;33.53;19.10;;;2.40;99.90;;;;;;5073858;28;20666;-64
2021/12/24 10:34:11;;;;;;;31.67;19.37;;;2.40;99.90;;;;;;5073006;28;20209;-65
2021/12/24 10:37:00;;;;;;;34.67;20.00;;;2.30;99.90;;;;;;5073426;28;20570;-64
2021/12/24 10:39:31;;;;;;;29.07;18.90;;;2.40;99.90;;;;;;5073522;28;20217;-64
2021/12/24 10:42:00;;;;;;;31.50;19.80;;;2.30;99.90;;;;;;5073355;28;20205;-64
2021/12/24 10:44:28;;;;;;;29.93;18.03;;;2.30;99.90;;;;;;5073731;28;20227;-63
2021/12/24 10:47:01;;;;;;;30.03;19.47;;;2.30;99.90;;;;;;5081695;28;20213;-63
2021/12/24 10:49:50;;;;;;;30.43;17.93;;;2.30;99.90;;;;;;5059868;28;20213;-63
2021/12/24 10:52:31;;;;;;;29.00;17.23;;;2.30;99.90;;;;;;5073753;28;20226;-64
2021/12/24 10:55:04;;;;;;;31.20;18.17;;;2.30;99.90;;;;;;5073029;28;20197;-65
2021/12/24 10:57:33;;;;;;;28.57;18.20;;;2.30;99.90;;;;;;5072713;28;20225;-66
2021/12/24 11:00:03;;;;;;;29.13;18.30;;;2.40;99.90;;;;;;5072694;28;20213;-67
2021/12/24 11:02:33;;;;;;;33.33;19.70;;;2.30;99.90;;;;;;5073327;28;20201;-64
2021/12/24 11:05:00;;;;;;;29.00;17.70;;;2.30;99.90;;;;;;5072807;28;20589;-63
2021/12/24 11:07:38;;;;;;;32.07;19.20;;;2.30;99.90;;;;;;5073408;28;20206;-65
2021/12/24 11:10:12;;;;;;;27.17;18.03;;;2.30;99.90;;;;;;5071829;28;20208;-64
2021/12/24 11:12:40;;;;;;;30.70;19.33;;;2.30;99.90;;;;;;5067051;28;20729;-63
2021/12/24 11:15:22;;;;;;;31.93;19.53;;;2.30;99.90;;;;;;5074351;28;20243;-65
2021/12/24 11:17:50;;;;;;;33.10;19.43;;;2.30;99.90;;;;;;5072140;28;20541;-65
2021/12/24 11:20:17;;;;;;;31.13;18.80;;;2.30;99.90;;;;;;5068703;28;20220;-64
2021/12/24 11:22:56;;;;;;;33.53;20.40;;;2.30;99.90;;;;;;5068458;28;20205;-64
2021/12/24 11:25:26;;;;;;;32.13;19.40;;;2.30;99.90;;;;;;5069653;28;20209;-63
2021/12/24 11:27:54;;;;;;;34.07;19.57;;;2.30;99.90;;;;;;5054371;28;20608;-65
2021/12/24 11:30:22;;;;;;;33.17;20.33;;;2.30;99.90;;;;;;5070900;28;20227;-63
2021/12/24 11:32:49;;;;;;;34.23;19.33;;;2.30;99.90;;;;;;5064578;28;20210;-65
2021/12/24 11:35:17;;;;;;;32.67;20.30;;;2.40;99.90;;;;;;5066216;28;20295;-64
2021/12/24 11:37:46;;;;;;;33.53;20.37;;;2.30;99.90;;;;;;5071349;28;20220;-64
2021/12/24 11:40:15;;;;;;;34.27;19.73;;;2.30;99.90;;;;;;5069353;28;20209;-65
2021/12/24 11:42:49;;;;;;;31.60;19.37;;;2.30;99.90;;;;;;5068457;28;20231;-64
2021/12/24 11:45:17;;;;;;;32.03;19.27;;;2.30;99.90;;;;;;5061537;28;20198;-64
2021/12/24 11:47:44;;;;;;;29.10;18.47;;;2.30;99.90;;;;;;5058133;28;20210;-64
2021/12/24 11:50:11;;;;;;;31.50;19.37;;;2.30;99.90;;;;;;5056055;28;20210;-64
2021/12/24 11:52:40;;;;;;;29.60;19.03;;;2.30;99.90;;;;;;5054926;28;20213;-65
2021/12/24 11:55:07;;;;;;;32.77;18.50;;;2.30;99.90;;;;;;5061025;28;21050;-65
2021/12/24 11:57:34;;;;;;;28.90;18.07;;;2.30;99.90;;;;;;5052669;28;20232;-64
2021/12/24 12:00:12;;;;;;;29.93;18.30;;;2.30;99.90;;;;;;5057815;28;20228;-64
2021/12/24 12:02:45;;;;;;;29.33;16.67;;;2.40;99.90;;;;;;5056919;28;20210;-66
2021/12/24 12:05:18;;;;;;;29.37;16.60;;;2.30;99.90;;;;;;5057312;28;20208;-65
2021/12/24 12:07:45;;;;;;;26.13;16.53;;;2.30;99.90;;;;;;5065160;28;20219;-65
2021/12/24 12:10:13;;;;;;;24.57;16.03;;;2.40;99.90;;;;;;5080029;28;20209;-64
2021/12/24 12:12:41;;;;;;;27.03;16.20;;;2.30;99.90;;;;;;5053318;28;20206;-66
2021/12/24 12:15:27;;;;;;;25.60;15.33;;;2.30;99.90;;;;;;5060575;28;20247;-61
2021/12/24 12:17:58;;;;;;;20.30;14.07;;;2.30;99.90;;;;;;5057555;28;20261;-62
2021/12/24 12:20:46;;;;;;;23.70;14.20;;;2.30;99.90;;;;;;5060798;28;20200;-64
2021/12/24 12:23:48;;;;;;;23.20;14.60;;;2.30;99.90;;;;;;5061282;28;20210;-64
2021/12/24 12:26:35;;;;;;;19.97;13.57;;;2.30;99.90;;;;;;5062712;28;20247;-63
2021/12/24 12:29:19;;;;;;;19.30;12.87;;;2.30;99.90;;;;;;5071954;28;20212;-62
2021/12/24 12:31:50;;;;;;;21.27;13.60;;;2.30;99.90;;;;;;5066739;28;20231;-63
2021/12/24 12:34:48;;;;;;;19.17;12.80;;;2.30;99.90;;;;;;5065542;28;20202;-66
2021/12/24 12:37:17;;;;;;;20.13;13.70;;;2.30;99.90;;;;;;5070985;28;20213;-64
2021/12/24 12:39:45;;;;;;;20.90;14.37;;;2.30;99.90;;;;;;5075250;28;20311;-65
2021/12/24 12:42:13;;;;;;;19.13;12.60;;;2.30;99.90;;;;;;5077008;28;20650;-65
2021/12/24 12:44:46;;;;;;;19.67;12.80;;;2.30;99.90;;;;;;5071176;28;20308;-65
2021/12/24 12:47:16;;;;;;;21.53;13.73;;;2.30;99.90;;;;;;5071610;28;20209;-66
2021/12/24 12:49:44;;;;;;;19.40;13.13;;;2.30;99.90;;;;;;5071978;28;20603;-65
2021/12/24 12:52:22;;;;;;;19.27;13.40;;;2.30;99.90;;;;;;5071325;28;20273;-65
2021/12/24 12:54:51;;;;;;;20.07;12.80;;;2.30;99.90;;;;;;5071952;28;20775;-64
2021/12/24 12:57:27;;;;;;;17.30;12.50;;;2.30;99.90;;;;;;5071219;28;20248;-62
2021/12/24 13:00:19;;;;;;;18.30;12.33;;;2.30;99.90;;;;;;5071923;28;20216;-64
2021/12/24 13:03:09;;;;;;;19.73;13.50;;;2.30;99.90;;;;;;5072177;28;20205;-63
2021/12/24 13:05:59;;;;;;;19.80;12.63;;;2.30;99.90;;;;;;5059231;28;20714;-64
2021/12/24 13:08:28;;;;;;;20.07;13.33;;;2.30;99.90;;;;;;5074872;28;20209;-64
2021/12/24 13:10:57;;;;;;;21.60;13.53;;;2.30;99.90;;;;;;5071320;28;20725;-65
2021/12/24 13:13:25;;;;;;;22.77;13.90;;;2.30;99.90;;;;;;5069175;28;20501;-63
2021/12/24 13:15:51;;;;;;;21.97;13.93;;;2.30;99.90;;;;;;5071317;28;20205;-63
2021/12/24 13:18:26;;;;;;;19.60;13.13;;;2.40;99.90;;;;;;5073440;28;20302;-65
2021/12/24 13:23:42;;;;;;;20.50;14.30;;;2.30;99.90;;;;;;5054598;28;20217;-65
2021/12/24 13:26:13;;;;;;;21.17;13.17;;;2.30;99.90;;;;;;5073614;28;20256;-64
2021/12/24 13:29:03;;;;;;;18.93;12.70;;;2.30;99.90;;;;;;5072264;28;20648;-64
2021/12/24 13:31:31;;;;;;;17.30;12.37;;;2.30;99.90;;;;;;5072736;28;20197;-64
2021/12/24 13:34:00;;;;;;;17.97;12.57;;;2.30;99.90;;;;;;5073396;28;20220;-64
2021/12/24 13:36:29;;;;;;;19.07;13.17;;;2.30;99.90;;;;;;5071717;28;20296;-65
2021/12/24 13:39:08;;;;;;;21.13;13.67;;;2.30;99.90;;;;;;5074910;28;20719;-64
2021/12/24 13:41:35;;;;;;;20.10;13.53;;;2.30;99.90;;;;;;5065475;28;20205;-63
2021/12/24 13:44:01;;;;;;;19.23;13.07;;;2.30;99.90;;;;;;5074731;28;20574;-63
2021/12/24 13:46:32;;;;;;;20.13;12.97;;;2.30;99.90;;;;;;5073967;28;20281;-65
2021/12/24 13:49:23;;;;;;;21.10;13.03;;;2.40;99.90;;;;;;5074066;28;20194;-65
2021/12/24 13:54:37;;;;;;;20.37;13.27;;;2.30;99.90;;;;;;5072180;28;20195;-64
2021/12/24 13:57:06;;;;;;;19.27;12.77;;;2.30;99.90;;;;;;5074830;28;20573;-64
2021/12/24 13:59:34;;;;;;;20.53;13.10;;;2.30;99.90;;;;;;5073807;28;20223;-66
2021/12/24 14:02:02;;;;;;;24.83;15.00;;;2.30;99.90;;;;;;5074949;28;20666;-67
2021/12/24 14:04:32;;;;;;;20.67;12.73;;;2.30;99.90;;;;;;5080144;28;20227;-66
2021/12/24 14:06:59;;;;;;;20.67;12.73;;;2.30;99.90;;;;;;5081700;28;20198;-66